Time,TemperatureF,DewpointF,PressureIn,WindDirection,WindDirectionDegrees,WindSpeedMPH,WindSpeedGustMPH,Humidity,HourlyPrecipIn,Conditions,Clouds,dailyrainin,SoftwareType,DateUTC
2013-01-25 00:05:00,54.0,44.8,30.34,NNW,337,0.0,0.0,71,0.00,,,0.00,Weather View 32 v70,2013-01-25 05:05:00,
2013-01-25 01:00:00,54.0,44.8,30.35,NNW,337,0.0,0.0,71,0.00,,,0.00,Weather View 32 v70,2013-01-25 06:00:00,
2013-01-25 01:15:00,53.0,43.5,30.35,NNW,337,0.0,0.0,70,0.00,,,0.00,Weather View 32 v70,2013-01-25 06:15:00,
2013-01-25 01:55:00,55.0,40.5,30.34,NNW,337,2.0,2.0,58,0.00,,,0.00,Weather View 32 v70,2013-01-25 06:55:00,
2013-01-25 02:00:00,55.0,45.4,30.34,NNW,337,2.0,2.0,70,0.00,,,0.00,Weather View 32 v70,2013-01-25 07:00:00,
2013-01-25 02:05:00,55.0,45.4,30.33,NNW,337,1.0,2.0,70,0.00,,,0.00,Weather View 32 v70,2013-01-25 07:05:00,
2013-01-25 02:35:00,55.0,40.5,30.33,NNW,337,2.0,2.0,58,0.00,,,0.00,Weather View 32 v70,2013-01-25 07:35:00,
2013-01-25 02:40:00,55.0,45.4,30.32,NNW,337,1.0,2.0,70,0.00,,,0.00,Weather View 32 v70,2013-01-25 07:40:00,
2013-01-25 03:10:00,54.0,39.5,30.31,NNW,337,0.0,2.0,58,0.00,,,0.00,Weather View 32 v70,2013-01-25 08:10:00,
2013-01-25 03:20:00,55.0,40.0,30.31,NNW,337,0.0,2.0,57,0.00,,,0.00,Weather View 32 v70,2013-01-25 08:20:00,
2013-01-25 03:30:00,55.0,40.0,30.31,NNW,337,0.0,2.0,57,0.00,,,0.00,Weather View 32 v70,2013-01-25 08:30:00,
2013-01-25 03:40:00,55.0,39.6,30.31,NNW,337,1.0,1.0,56,0.00,,,0.00,Weather View 32 v70,2013-01-25 08:40:00,
2013-01-25 03:45:00,55.0,39.6,30.31,NNW,337,0.0,1.0,56,0.00,,,0.00,Weather View 32 v70,2013-01-25 08:45:00,
2013-01-25 04:00:00,55.0,45.0,30.31,NNW,337,0.0,1.0,69,0.00,,,0.00,Weather View 32 v70,2013-01-25 09:00:00,
2013-01-25 04:05:00,55.0,39.6,30.31,NNW,337,0.0,1.0,56,0.00,,,0.00,Weather View 32 v70,2013-01-25 09:05:00,
2013-01-25 04:10:00,54.0,38.6,30.31,NNW,337,0.0,1.0,56,0.00,,,0.00,Weather View 32 v70,2013-01-25 09:10:00,
2013-01-25 04:15:00,54.0,38.6,30.31,NNW,337,0.0,1.0,56,0.00,,,0.00,Weather View 32 v70,2013-01-25 09:15:00,
2013-01-25 04:20:00,54.0,44.0,30.31,NNW,337,0.0,1.0,69,0.00,,,0.00,Weather View 32 v70,2013-01-25 09:20:00,
2013-01-25 04:35:00,54.0,38.6,30.31,NNW,337,0.0,1.0,56,0.00,,,0.00,Weather View 32 v70,2013-01-25 09:35:00,
2013-01-25 04:40:00,54.0,44.0,30.31,NNW,337,0.0,1.0,69,0.00,,,0.00,Weather View 32 v70,2013-01-25 09:40:00,
2013-01-25 04:45:00,53.0,42.7,30.31,NNW,337,0.0,1.0,68,0.00,,,0.00,Weather View 32 v70,2013-01-25 09:45:00,
2013-01-25 04:50:00,54.0,44.0,30.31,NNW,337,0.0,2.0,69,0.00,,,0.00,Weather View 32 v70,2013-01-25 09:50:00,
2013-01-25 04:55:00,54.0,38.2,30.31,NNW,337,1.0,2.0,55,0.00,,,0.00,Weather View 32 v70,2013-01-25 09:55:00,
2013-01-25 05:00:00,54.0,38.2,30.31,NNW,337,0.0,2.0,55,0.00,,,0.00,Weather View 32 v70,2013-01-25 10:00:00,
2013-01-25 05:05:00,54.0,43.7,30.31,NNW,337,1.0,2.0,68,0.00,,,0.00,Weather View 32 v70,2013-01-25 10:05:00,
2013-01-25 05:10:00,54.0,37.7,30.31,NNW,337,1.0,3.0,54,0.00,,,0.00,Weather View 32 v70,2013-01-25 10:10:00,
2013-01-25 05:20:00,54.0,37.7,30.31,NNW,337,0.0,3.0,54,0.00,,,0.00,Weather View 32 v70,2013-01-25 10:20:00,
2013-01-25 05:40:00,54.0,37.7,30.32,NNW,337,0.0,3.0,54,0.00,,,0.00,Weather View 32 v70,2013-01-25 10:40:00,
2013-01-25 05:50:00,54.0,43.7,30.32,NNW,337,0.0,3.0,68,0.00,,,0.00,Weather View 32 v70,2013-01-25 10:50:00,
2013-01-25 06:00:00,54.0,43.7,30.32,NNW,337,0.0,3.0,68,0.00,,,0.00,Weather View 32 v70,2013-01-25 11:00:00,
2013-01-25 06:15:00,53.0,36.3,30.33,NNW,337,0.0,1.0,53,0.00,,,0.00,Weather View 32 v70,2013-01-25 11:15:00,
2013-01-25 06:20:00,53.0,36.3,30.33,NNW,337,2.0,2.0,53,0.00,,,0.00,Weather View 32 v70,2013-01-25 11:20:00,
2013-01-25 06:25:00,54.0,37.2,30.33,NNW,337,2.0,3.0,53,0.00,,,0.00,Weather View 32 v70,2013-01-25 11:25:00,
2013-01-25 06:30:00,54.0,37.2,30.33,NNW,337,2.0,3.0,53,0.00,,,0.00,Weather View 32 v70,2013-01-25 11:30:00,
2013-01-25 06:35:00,54.0,37.2,30.33,NNW,337,3.0,3.0,53,0.00,,,0.00,Weather View 32 v70,2013-01-25 11:35:00,
2013-01-25 06:45:00,54.0,37.2,30.34,NNW,337,1.0,3.0,53,0.00,,,0.00,Weather View 32 v70,2013-01-25 11:45:00,
2013-01-25 06:55:00,54.0,43.3,30.34,NNW,337,2.0,3.0,67,0.00,,,0.00,Weather View 32 v70,2013-01-25 11:55:00,
2013-01-25 07:00:00,54.0,37.2,30.34,NNW,337,0.0,3.0,53,0.00,,,0.00,Weather View 32 v70,2013-01-25 12:00:00,
2013-01-25 07:05:00,53.0,36.3,30.34,NNW,337,0.0,3.0,53,0.00,,,0.00,Weather View 32 v70,2013-01-25 12:05:00,
2013-01-25 07:10:00,53.0,36.3,30.34,NNW,337,0.0,3.0,53,0.00,,,0.00,Weather View 32 v70,2013-01-25 12:10:00,
2013-01-25 07:15:00,53.0,36.3,30.34,NNW,337,0.0,3.0,53,0.00,,,0.00,Weather View 32 v70,2013-01-25 12:15:00,
2013-01-25 07:20:00,53.0,36.3,30.34,NNW,337,0.0,3.0,53,0.00,,,0.00,Weather View 32 v70,2013-01-25 12:20:00,
2013-01-25 07:25:00,53.0,36.3,30.34,North,360,0.0,3.0,53,0.00,,,0.00,Weather View 32 v70,2013-01-25 12:25:00,
2013-01-25 07:30:00,53.0,42.3,30.34,East,90,0.0,3.0,67,0.00,,,0.00,Weather View 32 v70,2013-01-25 12:30:00,
2013-01-25 07:40:00,53.0,36.8,30.35,East,90,0.0,2.0,54,0.00,,,0.00,Weather View 32 v70,2013-01-25 12:40:00,
2013-01-25 07:50:00,54.0,37.2,30.35,East,90,1.0,2.0,53,0.00,,,0.00,Weather View 32 v70,2013-01-25 12:50:00,
2013-01-25 07:55:00,54.0,37.2,30.35,East,90,0.0,3.0,53,0.00,,,0.00,Weather View 32 v70,2013-01-25 12:55:00,
2013-01-25 08:00:00,54.0,37.2,30.35,ENE,67,0.0,3.0,53,0.00,,,0.00,Weather View 32 v70,2013-01-25 13:00:00,
2013-01-25 08:05:00,55.0,38.1,30.36,ENE,67,2.0,3.0,53,0.00,,,0.00,Weather View 32 v70,2013-01-25 13:05:00,
2013-01-25 08:10:00,55.0,44.2,30.36,ENE,67,0.0,3.0,67,0.00,,,0.00,Weather View 32 v70,2013-01-25 13:10:00,
2013-01-25 08:15:00,55.0,37.2,30.37,ENE,67,0.0,3.0,51,0.00,,,0.00,Weather View 32 v70,2013-01-25 13:15:00,
2013-01-25 08:20:00,55.0,37.7,30.37,ENE,67,0.0,3.0,52,0.00,,,0.00,Weather View 32 v70,2013-01-25 13:20:00,
2013-01-25 08:25:00,56.0,38.1,30.37,ENE,67,0.0,3.0,51,0.00,,,0.00,Weather View 32 v70,2013-01-25 13:25:00,
2013-01-25 08:30:00,56.0,38.1,30.38,ENE,67,0.0,3.0,51,0.00,,,0.00,Weather View 32 v70,2013-01-25 13:30:00,
2013-01-25 08:35:00,57.0,45.7,30.38,ENE,67,0.0,3.0,66,0.00,,,0.00,Weather View 32 v70,2013-01-25 13:35:00,
2013-01-25 08:40:00,57.0,39.0,30.38,ENE,67,1.0,3.0,51,0.00,,,0.00,Weather View 32 v70,2013-01-25 13:40:00,
2013-01-25 08:50:00,57.0,39.0,30.39,ENE,67,0.0,3.0,51,0.00,,,0.00,Weather View 32 v70,2013-01-25 13:50:00,
2013-01-25 08:55:00,58.0,58.0,30.39,ENE,67,0.0,2.0,100,0.00,,,0.00,Weather View 32 v70,2013-01-25 13:55:00,
2013-01-25 09:50:00,63.0,54.6,30.42,ENE,67,2.0,4.0,74,0.00,,,0.00,Weather View 32 v70,2013-01-25 14:50:00,
2013-01-25 09:55:00,63.0,54.6,30.42,ENE,67,0.0,4.0,74,0.00,,,0.00,Weather View 32 v70,2013-01-25 14:55:00,
2013-01-25 10:20:00,63.0,57.1,30.43,ENE,67,3.0,3.0,81,0.00,,,0.00,Weather View 32 v70,2013-01-25 15:20:00,
2013-01-25 14:20:00,71.0,66.2,30.35,East,90,0.0,0.0,85,0.00,,,0.00,Weather View 32 v70,2013-01-25 19:20:00,
2013-01-25 17:45:00,65.0,60.0,30.32,NNW,337,8.0,8.0,84,0.00,,,0.00,Weather View 32 v70,2013-01-25 22:45:00,
2013-01-25 17:50:00,64.0,59.1,30.32,NNW,337,6.0,8.0,84,0.00,,,0.00,Weather View 32 v70,2013-01-25 22:50:00,
2013-01-25 18:00:00,64.0,58.7,30.32,NNW,337,2.0,8.0,83,0.00,,,0.00,Weather View 32 v70,2013-01-25 23:00:00,